createdAt,value
2018-07-22T00:01:46.753Z,23.50
2018-07-22T00:04:22.715Z,23.60
2018-07-22T00:07:14.493Z,23.71
2018-07-22T00:09:56.365Z,23.78
2018-07-22T00:12:33.560Z,23.72
2018-07-22T00:15:09.468Z,23.72
2018-07-22T00:17:53.167Z,23.86
2018-07-22T00:20:34.009Z,23.80
2018-07-22T00:23:15.465Z,23.70
2018-07-22T00:25:54.593Z,23.85
2018-07-22T00:28:46.611Z,24.09
2018-07-22T00:34:26.934Z,23.91
2018-07-22T00:36:57.204Z,23.71
2018-07-22T00:39:33.282Z,23.79
2018-07-22T00:42:02.931Z,23.64
2018-07-22T00:44:35.339Z,23.65
2018-07-22T00:47:07.071Z,23.94
2018-07-22T00:49:38.654Z,23.92
2018-07-22T00:52:09.828Z,23.95
2018-07-22T00:54:40.902Z,23.87
2018-07-22T00:57:13.509Z,23.68
2018-07-22T00:59:43.881Z,23.50
2018-07-22T01:02:14.400Z,23.72
2018-07-22T01:04:47.132Z,23.61
2018-07-22T01:07:20.122Z,23.61
2018-07-22T01:09:53.222Z,23.61
2018-07-22T01:12:25.631Z,23.71
2018-07-22T01:17:35.844Z,23.49
2018-07-22T01:20:07.780Z,23.44
2018-07-22T01:22:40.051Z,23.52
2018-07-22T01:25:11.835Z,23.39
2018-07-22T01:27:43.347Z,23.33
2018-07-22T01:30:15.194Z,23.33
2018-07-22T01:32:46.805Z,23.55
2018-07-22T01:35:19.500Z,23.62
2018-07-22T01:37:50.298Z,23.56
2018-07-22T01:40:20.869Z,23.27
2018-07-22T01:42:52.014Z,23.15
2018-07-22T01:45:23.432Z,23.15
2018-07-22T01:47:55.034Z,23.03
2018-07-22T01:50:25.889Z,22.93
2018-07-22T01:52:56.903Z,22.70
2018-07-22T01:55:28.892Z,22.53
2018-07-22T01:57:59.667Z,22.69
2018-07-22T02:00:30.936Z,22.65
2018-07-22T02:03:03.557Z,22.72
2018-07-22T02:05:34.604Z,22.86
2018-07-22T02:08:06.157Z,22.91
2018-07-22T02:10:36.303Z,22.88
2018-07-22T02:13:07.851Z,23.12
2018-07-22T02:15:40.190Z,23.16
2018-07-22T02:18:10.860Z,22.97
2018-07-22T02:20:41.858Z,22.94
2018-07-22T02:23:16.533Z,22.83
2018-07-22T02:25:47.157Z,22.88
2018-07-22T02:28:18.096Z,22.91
2018-07-22T02:30:48.972Z,22.93
2018-07-22T02:33:19.928Z,23.00
2018-07-22T02:35:53.219Z,23.01
2018-07-22T02:38:24.473Z,22.85
2018-07-22T02:40:57.948Z,22.92
2018-07-22T02:43:29.879Z,23.10
2018-07-22T02:46:02.103Z,23.22
2018-07-22T02:48:33.055Z,23.10
2018-07-22T02:51:04.117Z,23.23
2018-07-22T02:53:36.947Z,23.37
2018-07-22T02:56:07.825Z,23.57
2018-07-22T02:58:39.354Z,23.38
2018-07-22T03:01:09.837Z,23.31
2018-07-22T03:03:42.971Z,23.27
2018-07-22T03:06:14.754Z,23.56
2018-07-22T03:08:56.032Z,23.43
2018-07-22T03:11:30.423Z,23.48
2018-07-22T03:14:02.997Z,23.53
2018-07-22T03:16:33.072Z,23.49
2018-07-22T03:19:08.157Z,23.29
2018-07-22T03:21:38.979Z,23.18
2018-07-22T03:34:12.514Z,22.46
2018-07-22T03:36:43.074Z,22.74
2018-07-22T03:39:15.862Z,22.79
2018-07-22T03:41:47.982Z,23.05
2018-07-22T03:44:19.739Z,23.19
2018-07-22T03:46:49.631Z,22.92
2018-07-22T03:49:19.406Z,22.73
2018-07-22T03:51:49.146Z,22.51
2018-07-22T03:54:18.893Z,22.51
2018-07-22T03:56:49.262Z,22.56
2018-07-22T03:59:19.030Z,22.57
2018-07-22T04:01:49.620Z,22.69
2018-07-22T04:04:19.344Z,22.64
2018-07-22T04:12:06.909Z,22.01
2018-07-22T04:14:37.546Z,21.97
2018-07-22T04:17:07.615Z,22.25
2018-07-22T04:19:37.306Z,22.35
2018-07-22T04:22:06.988Z,22.68
2018-07-22T04:24:36.805Z,23.20
2018-07-22T04:27:06.681Z,23.46
2018-07-22T04:29:37.836Z,23.52
2018-07-22T04:32:07.595Z,23.74
2018-07-22T04:34:39.132Z,24.07
2018-07-22T04:37:08.884Z,24.28
2018-07-22T04:39:38.641Z,23.92
2018-07-22T04:44:44.712Z,24.28
2018-07-22T04:47:14.491Z,24.09
2018-07-22T04:49:44.173Z,24.17
2018-07-22T04:52:13.923Z,24.09
2018-07-22T04:54:43.602Z,23.83
2018-07-22T04:57:13.336Z,23.69
2018-07-22T04:59:43.114Z,23.62
2018-07-22T05:02:12.879Z,23.92
2018-07-22T05:04:42.579Z,23.88
2018-07-22T05:07:12.287Z,23.90
2018-07-22T05:09:42.313Z,23.90
2018-07-22T05:12:12.838Z,24.02
2018-07-22T05:14:42.620Z,24.35
2018-07-22T05:17:12.730Z,24.44
2018-07-22T05:19:42.452Z,24.27
2018-07-22T05:22:13.668Z,24.47
2018-07-22T05:24:43.297Z,24.31
2018-07-22T05:27:14.978Z,24.44
2018-07-22T05:29:44.663Z,24.22
2018-07-22T05:32:16.236Z,24.17
2018-07-22T05:34:45.890Z,24.04
2018-07-22T05:37:15.681Z,23.94
2018-07-22T05:39:45.439Z,24.00
2018-07-22T05:42:15.604Z,23.97
2018-07-22T05:44:45.580Z,23.94
2018-07-22T05:47:15.349Z,24.05
2018-07-22T05:49:45.208Z,23.91
2018-07-22T05:52:14.916Z,23.72
2018-07-22T05:54:44.985Z,23.80
2018-07-22T05:57:14.731Z,23.91
2018-07-22T05:59:44.566Z,24.05
2018-07-22T06:02:15.825Z,24.42
2018-07-22T06:04:45.500Z,24.29
2018-07-22T06:12:28.011Z,23.83
2018-07-22T06:14:58.363Z,23.96
2018-07-22T06:17:28.692Z,24.08
2018-07-22T06:22:36.732Z,24.20
2018-07-22T06:25:07.043Z,24.33
2018-07-22T06:30:12.030Z,24.51
2018-07-22T06:32:41.587Z,24.59
2018-07-22T06:35:11.324Z,24.82
2018-07-22T06:37:41.242Z,24.91
2018-07-22T06:40:10.995Z,24.88
2018-07-22T06:42:41.940Z,24.60
2018-07-22T06:45:11.704Z,24.80
2018-07-22T06:47:41.816Z,25.09
2018-07-22T06:50:11.701Z,25.21
2018-07-22T06:52:41.420Z,25.37
2018-07-22T06:55:12.477Z,25.41
2018-07-22T06:57:42.217Z,25.38
2018-07-22T07:00:11.938Z,25.37
2018-07-22T07:02:41.648Z,25.32
2018-07-22T07:05:11.391Z,25.25
2018-07-22T07:07:41.042Z,25.11
2018-07-22T07:10:10.841Z,25.32
2018-07-22T07:12:40.613Z,25.16
2018-07-22T07:15:10.335Z,25.49
2018-07-22T07:17:40.045Z,25.28
2018-07-22T07:20:10.016Z,25.49
2018-07-22T07:25:15.338Z,25.72
2018-07-22T07:27:45.132Z,25.76
2018-07-22T07:30:14.567Z,25.96
2018-07-22T07:32:44.295Z,25.98
2018-07-22T07:35:14.078Z,26.05
2018-07-22T07:37:43.814Z,26.08
2018-07-22T07:40:13.591Z,26.10
2018-07-22T07:42:43.328Z,26.37
2018-07-22T07:45:13.690Z,26.53
2018-07-22T07:47:43.486Z,26.70
2018-07-22T07:50:13.406Z,26.57
2018-07-22T07:52:43.158Z,26.67
2018-07-22T07:55:12.909Z,26.79
2018-07-22T07:57:42.601Z,26.56
2018-07-22T08:00:12.912Z,26.51
2018-07-22T08:02:42.627Z,26.86
2018-07-22T08:05:12.340Z,26.95
2018-07-22T08:07:42.066Z,27.02
2018-07-22T08:10:12.003Z,27.00
2018-07-22T08:12:41.886Z,27.10
2018-07-22T08:15:11.709Z,27.44
2018-07-22T08:17:41.530Z,27.83
2018-07-22T08:20:11.387Z,27.83
2018-07-22T08:22:41.124Z,28.26
2018-07-22T08:25:10.884Z,28.36
2018-07-22T08:27:40.859Z,27.95
2018-07-22T08:30:10.644Z,27.87
2018-07-22T08:32:40.353Z,28.08
2018-07-22T08:35:10.223Z,28.03
2018-07-22T08:37:39.948Z,28.21
2018-07-22T08:40:09.982Z,28.25
2018-07-22T08:42:39.705Z,28.48
2018-07-22T08:45:09.665Z,28.75
2018-07-22T08:47:39.545Z,28.84
2018-07-22T08:55:45.519Z,28.72
2018-07-22T08:58:15.455Z,28.99
2018-07-22T09:05:56.729Z,28.96
2018-07-22T09:08:27.525Z,29.23
2018-07-22T09:11:01.837Z,29.24
2018-07-22T09:13:31.585Z,29.18
2018-07-22T09:16:02.952Z,29.35
2018-07-22T09:18:32.780Z,29.14
2018-07-22T09:21:02.501Z,29.32
2018-07-22T09:23:33.567Z,29.64
2018-07-22T09:26:03.998Z,29.53
2018-07-22T09:28:35.079Z,29.95
2018-07-22T09:31:06.166Z,30.04
2018-07-22T09:33:36.194Z,29.96
2018-07-22T09:36:06.009Z,29.80
2018-07-22T09:38:36.954Z,29.95
2018-07-22T09:41:06.910Z,29.96
2018-07-22T09:43:38.816Z,29.98
2018-07-22T09:46:09.543Z,30.11
2018-07-22T09:48:39.389Z,30.25
2018-07-22T09:51:09.146Z,30.25
2018-07-22T09:53:38.880Z,30.27
2018-07-22T09:56:08.660Z,30.37
2018-07-22T09:58:38.656Z,30.33
2018-07-22T10:01:08.333Z,30.54
2018-07-22T10:03:38.220Z,30.82
2018-07-22T10:06:08.113Z,30.86
2018-07-22T10:08:37.877Z,30.91
2018-07-22T10:11:07.653Z,30.84
2018-07-22T10:13:37.515Z,30.85
2018-07-22T10:16:07.444Z,31.19
2018-07-22T10:18:37.222Z,31.26
2018-07-22T10:21:07.201Z,31.73
2018-07-22T10:23:37.994Z,31.82
2018-07-22T10:26:07.782Z,31.59
2018-07-22T10:28:37.717Z,31.59
2018-07-22T10:31:07.854Z,32.01
2018-07-22T10:33:37.785Z,32.64
2018-07-22T10:36:07.572Z,32.62
2018-07-22T10:38:37.437Z,32.06
2018-07-22T10:41:07.202Z,31.98
2018-07-22T10:43:37.049Z,32.05
2018-07-22T10:46:06.907Z,31.83
2018-07-22T10:48:36.681Z,31.65
2018-07-22T10:51:10.423Z,31.60
2018-07-22T10:53:40.344Z,31.55
2018-07-22T10:56:10.152Z,31.64
2018-07-22T10:58:40.197Z,31.86
2018-07-22T11:01:10.019Z,31.76
2018-07-22T11:03:39.437Z,31.84
2018-07-22T11:06:09.064Z,31.61
2018-07-22T11:08:38.885Z,31.61
2018-07-22T11:11:08.872Z,31.58
2018-07-22T11:13:38.881Z,31.16
2018-07-22T11:16:08.801Z,31.45
2018-07-22T11:18:38.635Z,31.49
2018-07-22T11:21:08.891Z,31.61
2018-07-22T11:23:38.914Z,31.32
2018-07-22T11:26:08.697Z,31.37
2018-07-22T11:28:38.425Z,31.41
2018-07-22T11:31:08.168Z,31.39
2018-07-22T11:33:37.889Z,31.56
2018-07-22T11:36:07.755Z,31.48
2018-07-22T11:38:37.581Z,31.18
2018-07-22T11:41:07.314Z,31.01
2018-07-22T11:43:37.235Z,30.92
2018-07-22T11:46:07.077Z,30.83
2018-07-22T11:48:36.859Z,30.83
2018-07-22T11:53:42.385Z,30.67
2018-07-22T11:56:12.191Z,30.98
2018-07-22T12:01:17.407Z,30.94
2018-07-22T12:03:47.105Z,30.84
2018-07-22T12:06:16.903Z,30.65
2018-07-22T12:08:46.680Z,30.70
2018-07-22T12:11:16.437Z,30.91
2018-07-22T12:13:47.270Z,31.10
2018-07-22T12:16:17.032Z,30.92
2018-07-22T12:18:46.728Z,31.03
2018-07-22T12:21:16.655Z,31.17
2018-07-22T12:23:46.430Z,31.55
2018-07-22T12:26:16.305Z,32.02
2018-07-22T12:28:46.244Z,31.82
2018-07-22T12:31:17.203Z,31.40
2018-07-22T12:33:46.999Z,31.22
2018-07-22T12:36:16.661Z,31.05
2018-07-22T12:38:46.612Z,31.11
2018-07-22T12:41:16.493Z,30.94
2018-07-22T12:43:45.881Z,30.79
2018-07-22T12:46:16.493Z,30.77
2018-07-22T12:48:46.268Z,30.76
2018-07-22T12:51:16.037Z,30.64
2018-07-22T12:53:45.917Z,30.37
2018-07-22T12:56:16.599Z,30.29
2018-07-22T12:58:46.589Z,30.31
2018-07-22T13:01:16.451Z,30.15
2018-07-22T13:03:46.489Z,30.14
2018-07-22T13:06:16.252Z,30.11
2018-07-22T13:08:45.970Z,29.77
2018-07-22T13:11:15.983Z,29.42
2018-07-22T13:13:45.759Z,29.13
2018-07-22T13:16:15.486Z,29.34
2018-07-22T13:18:45.243Z,29.67
2018-07-22T13:21:14.985Z,29.74
2018-07-22T13:23:44.728Z,29.70
2018-07-22T13:31:24.478Z,29.50
2018-07-22T13:33:54.177Z,29.52
2018-07-22T13:38:58.535Z,29.61
2018-07-22T13:41:28.194Z,29.70
2018-07-22T13:43:57.861Z,29.56
2018-07-22T13:49:03.373Z,29.53
2018-07-22T13:51:33.441Z,29.65
2018-07-22T13:54:03.342Z,29.38
2018-07-22T13:56:33.039Z,29.30
2018-07-22T13:59:02.986Z,29.46
2018-07-22T14:01:32.921Z,29.54
2018-07-22T14:04:03.147Z,29.36
2018-07-22T14:06:32.991Z,29.30
2018-07-22T14:09:02.970Z,29.47
2018-07-22T14:11:32.812Z,29.52
2018-07-22T14:14:02.689Z,29.36
2018-07-22T14:16:32.505Z,29.23
2018-07-22T14:19:02.242Z,29.33
2018-07-22T14:21:32.055Z,28.93
2018-07-22T14:24:01.698Z,28.80
2018-07-22T14:26:31.483Z,28.92
2018-07-22T14:29:00.860Z,28.84
2018-07-22T14:31:30.688Z,29.28
2018-07-22T14:36:36.212Z,29.56
2018-07-22T14:39:09.664Z,29.49
2018-07-22T14:44:15.209Z,29.85
2018-07-22T14:46:45.035Z,29.96
2018-07-22T14:49:14.823Z,30.20
2018-07-22T14:51:48.163Z,30.31
2018-07-22T14:54:19.665Z,30.43
2018-07-22T14:56:50.951Z,30.59
2018-07-22T14:59:23.916Z,30.19
2018-07-22T15:01:54.979Z,30.45
2018-07-22T15:04:26.339Z,30.40
2018-07-22T15:06:58.766Z,30.22
2018-07-22T15:09:29.735Z,30.29
2018-07-22T15:12:01.783Z,30.36
2018-07-22T15:14:33.120Z,30.32
2018-07-22T15:17:05.874Z,30.39
2018-07-22T15:19:36.817Z,30.29
2018-07-22T15:22:07.895Z,30.23
2018-07-22T15:24:40.937Z,29.97
2018-07-22T15:27:14.417Z,29.89
2018-07-22T15:29:45.068Z,29.77
2018-07-22T15:32:16.878Z,29.68
2018-07-22T15:34:48.882Z,29.76
2018-07-22T15:37:19.230Z,29.89
2018-07-22T15:39:49.063Z,29.83
2018-07-22T15:42:20.371Z,29.51
2018-07-22T15:44:51.804Z,29.53
2018-07-22T15:47:22.881Z,29.46
2018-07-22T15:49:53.903Z,29.24
2018-07-22T15:52:26.701Z,29.03
2018-07-22T15:54:58.135Z,28.96
2018-07-22T15:57:40.674Z,28.77
2018-07-22T16:00:11.639Z,28.90
2018-07-22T16:02:44.140Z,28.95
2018-07-22T16:05:17.904Z,28.63
2018-07-22T16:07:53.487Z,28.67
2018-07-22T16:10:27.934Z,28.65
2018-07-22T16:13:03.782Z,28.62
2018-07-22T16:15:35.198Z,28.82
2018-07-22T16:20:43.372Z,28.82
2018-07-22T16:23:17.257Z,28.52
2018-07-22T16:25:50.701Z,28.39
2018-07-22T16:28:22.147Z,28.32
2018-07-22T16:30:54.376Z,27.95
2018-07-22T16:33:26.894Z,28.08
2018-07-22T16:35:59.717Z,27.98
2018-07-22T16:38:33.846Z,28.21
2018-07-22T16:41:05.907Z,28.13
2018-07-22T16:43:37.795Z,28.26
2018-07-22T16:46:10.693Z,28.13
2018-07-22T16:48:43.491Z,28.09
2018-07-22T16:51:17.076Z,28.24
2018-07-22T16:53:48.832Z,28.33
2018-07-22T16:56:20.281Z,27.82
2018-07-22T16:58:53.146Z,27.90
2018-07-22T17:01:27.297Z,28.02
2018-07-22T17:03:59.605Z,27.97
2018-07-22T17:09:11.283Z,28.03
2018-07-22T17:11:42.347Z,27.92
2018-07-22T17:14:18.065Z,28.22
2018-07-22T17:16:50.231Z,28.28
2018-07-22T17:19:21.668Z,28.11
2018-07-22T17:21:51.825Z,28.16
2018-07-22T17:24:24.181Z,28.27
2018-07-22T17:26:54.026Z,27.81
2018-07-22T17:29:25.706Z,27.75
2018-07-22T17:31:57.077Z,28.01
2018-07-22T17:34:29.170Z,28.41
2018-07-22T17:37:00.608Z,28.32
2018-07-22T17:39:33.082Z,28.23
2018-07-22T17:42:04.678Z,28.22
2018-07-22T17:44:35.767Z,28.30
2018-07-22T17:47:05.804Z,28.54
2018-07-22T17:49:35.951Z,28.35
2018-07-22T17:52:07.860Z,28.25
2018-07-22T17:54:40.353Z,28.30
2018-07-22T17:57:10.618Z,28.06
2018-07-22T18:02:19.082Z,28.23
2018-07-22T18:04:51.210Z,27.89
2018-07-22T18:07:23.135Z,27.84
2018-07-22T18:09:55.039Z,27.89
2018-07-22T18:12:26.248Z,27.94
2018-07-22T18:14:57.416Z,27.66
2018-07-22T18:17:29.103Z,27.75
2018-07-22T18:20:01.431Z,27.77
2018-07-22T18:22:34.216Z,27.72
2018-07-22T18:25:05.883Z,27.65
2018-07-22T18:27:38.104Z,27.54
2018-07-22T18:30:13.990Z,27.56
2018-07-22T18:32:44.461Z,27.48
2018-07-22T18:35:16.832Z,27.10
2018-07-22T18:37:48.159Z,27.13
2018-07-22T18:40:18.816Z,27.06
2018-07-22T18:42:50.097Z,27.20
2018-07-22T18:45:25.236Z,26.94
2018-07-22T18:47:59.450Z,26.95
2018-07-22T18:50:31.032Z,26.78
2018-07-22T18:55:40.745Z,26.78
2018-07-22T18:58:11.080Z,26.69
2018-07-22T19:00:44.540Z,26.70
2018-07-22T19:11:12.723Z,26.90
2018-07-22T19:14:06.921Z,25.42
2018-07-22T19:16:40.816Z,26.09
2018-07-22T19:19:13.483Z,26.42
2018-07-22T19:21:47.969Z,26.39
2018-07-22T19:24:17.915Z,26.34
2018-07-22T19:26:52.568Z,26.82
2018-07-22T19:29:25.258Z,26.71
2018-07-22T19:31:57.846Z,26.27
2018-07-22T19:34:29.289Z,26.26
2018-07-22T19:37:01.582Z,26.63
2018-07-22T19:39:35.826Z,26.71
2018-07-22T19:42:06.479Z,26.79
2018-07-22T19:44:46.446Z,26.76
2018-07-22T19:47:17.984Z,26.58
2018-07-22T19:49:49.900Z,26.69
2018-07-22T19:52:22.405Z,26.54
2018-07-22T19:54:53.866Z,26.51
2018-07-22T19:57:27.205Z,26.74
2018-07-22T19:59:59.484Z,26.77
2018-07-22T20:02:31.989Z,26.63
2018-07-22T20:05:04.891Z,26.38
2018-07-22T20:07:38.454Z,26.55
2018-07-22T20:10:10.733Z,26.58
2018-07-22T20:12:43.109Z,26.51
2018-07-22T20:15:20.187Z,26.33
2018-07-22T20:17:52.281Z,26.32
2018-07-22T20:20:22.996Z,26.25
2018-07-22T20:25:39.841Z,26.00
2018-07-22T20:28:12.410Z,26.25
2018-07-22T20:30:44.756Z,26.05
2018-07-22T20:41:12.875Z,25.81
2018-07-22T20:43:44.864Z,24.34
2018-07-22T20:46:18.939Z,24.85
2018-07-22T20:48:50.943Z,25.20
2018-07-22T20:51:22.597Z,25.33
2018-07-22T20:54:02.425Z,25.47
2018-07-22T20:56:39.154Z,25.32
2018-07-22T20:59:11.372Z,25.37
2018-07-22T21:01:42.117Z,25.41
2018-07-22T21:04:14.018Z,25.37
2018-07-22T21:06:45.070Z,25.62
2018-07-22T21:09:15.374Z,25.54
2018-07-22T21:11:57.705Z,25.48
2018-07-22T21:14:27.837Z,25.45
2018-07-22T21:16:58.871Z,25.72
2018-07-22T21:19:31.006Z,25.62
2018-07-22T21:22:03.765Z,25.52
2018-07-22T21:24:36.620Z,25.38
2018-07-22T21:27:07.941Z,25.41
2018-07-22T21:29:39.195Z,25.47
2018-07-22T21:32:09.678Z,25.39
2018-07-22T21:34:42.097Z,25.28
2018-07-22T21:37:13.634Z,25.29
2018-07-22T21:39:47.138Z,25.36
2018-07-22T21:42:21.356Z,25.18
2018-07-22T21:44:53.297Z,25.12
2018-07-22T21:47:23.847Z,25.02
2018-07-22T21:49:55.837Z,25.06
2018-07-22T21:52:30.345Z,25.40
2018-07-22T21:55:03.013Z,25.22
2018-07-22T21:57:34.764Z,24.93
2018-07-22T22:00:24.410Z,24.98
2018-07-22T22:02:54.847Z,25.12
2018-07-22T22:05:26.866Z,24.96
2018-07-22T22:07:58.465Z,24.73
2018-07-22T22:10:30.110Z,24.65
2018-07-22T22:13:01.832Z,24.66
2018-07-22T22:15:33.075Z,24.58
2018-07-22T22:18:05.589Z,24.59
2018-07-22T22:20:41.908Z,24.52
2018-07-22T22:23:13.294Z,24.54
2018-07-22T22:25:44.765Z,24.47
2018-07-22T22:28:17.175Z,24.63
2018-07-22T22:30:56.671Z,24.59
2018-07-22T22:33:28.913Z,24.39
2018-07-22T22:35:59.820Z,24.36
2018-07-22T22:38:32.980Z,24.59
2018-07-22T22:41:05.305Z,24.54
2018-07-22T22:43:36.118Z,24.34
2018-07-22T22:46:09.907Z,24.24
2018-07-22T22:48:44.271Z,24.07
2018-07-22T22:51:15.025Z,23.96
2018-07-22T22:56:22.920Z,24.00
2018-07-22T22:58:58.995Z,23.91
2018-07-22T23:01:30.918Z,23.95
2018-07-22T23:04:01.056Z,23.69
2018-07-22T23:06:33.294Z,23.77
2018-07-22T23:09:07.989Z,23.81
2018-07-22T23:11:40.481Z,23.90
2018-07-22T23:14:14.044Z,24.06
2018-07-22T23:16:44.912Z,23.99
2018-07-22T23:19:20.550Z,24.06
2018-07-22T23:21:51.463Z,24.06
2018-07-22T23:24:24.105Z,23.93
2018-07-22T23:26:57.013Z,23.93
2018-07-22T23:29:28.825Z,24.10
2018-07-22T23:32:00.613Z,24.04
2018-07-22T23:34:31.904Z,23.74
2018-07-22T23:37:03.813Z,23.78
2018-07-22T23:39:36.484Z,23.77
2018-07-22T23:42:13.139Z,23.80
2018-07-22T23:44:45.889Z,23.80
2018-07-22T23:47:18.531Z,23.80
2018-07-22T23:49:51.237Z,24.10
2018-07-22T23:52:22.910Z,24.25
2018-07-22T23:54:53.933Z,24.06
2018-07-22T23:57:25.080Z,24.00
2018-07-22T23:59:57.127Z,23.88
